GANR

Nioro du Sahel Airport

Nioro du Sahel, Mali
METAR GANR 172100Z 04004KT CAVOK 28/01 Q1012
Observed Flight Rules
Feb-17 @ 21:00 UTC (34 minutes ago) Visual Flight Rules
Wind Visibility Clouds
40° at 4 knots 10,000+ meters
  • Clear skies
Temperatures Readings
Current 28°C / 82°F
Dewpoint 1°C / 34°F
Humidity 17%
Altimeter 29.88" Hg
Pressure 1012 hPa
Elevation 237
METAR GANR 172100Z 04004KT CAVOK 28/01 Q1012
Observed Flight Rules
Feb-17 @ 21:00 UTC
(34 minutes ago)
VFR
Wind Visibility
40° at 4 knots 10,000+ meters
Clouds
  • Clear skies
Temperature Dewpoint
28°C / 82°F 1°C / 34°F
Humidity Altimeter Pressure
17% 29.88" Hg 1012 hPa